Armington, IL

11:33 AM CDT on July 30, 2015 (GMT -0500)
NE 6th Street | | Change Station
CLOSE
Current Station
Personal Weather Station
Location: Atlanta, IL
Elevation: 719 ft
Nearby Weather Stations
Active Advisory: Flood Warning Active Notice: Local Storm Report

Elev 719 ft 40.27 °N, 89.23 °W | Updated 1 second ago

Clear
Clear
94.7 °F
Feels Like 100 °F
N
1.8
Wind Variable Wind from WSW
Gusts 6.3 mph

Today
High -- | Low -- °F
--% Chance of Precip.
Yesterday
High -- | Low -- °F
Precip. -- in
5:52 AM 8:14 PM
Waxing Gibbous, 99% visible
Pressure 30.14 in
Visibility 10.0 miles
Clouds Clear
Heat Index 100 °F
Dew Point 68 °F
Humidity 42%
Rainfall 0.00 in
Snow Depth Not available.
UV 9 out of 12
Pollen 6.50 out of 12
Air Quality Not available.
Flu Activity Not available.
METAR KAAA 301615Z AUTO 30005KT 10SM CLR 30/16 A3014 RMK AO2 T02950158

More Conditions Fewer Conditions

Pressure 30.14 in
Visibility 10.0 miles
Clouds Clear
Heat Index 100 °F
Dew Point 68 °F
Humidity 42%
Rainfall 0.00 in
Snow Depth Not available.
UV 9 out of 12
Pollen 6.50 out of 12
Air Quality Not available.
Flu Activity Not available.
METAR KAAA 301615Z AUTO 30005KT 10SM CLR 30/16 A3014 RMK AO2 T02950158

More Conditions Fewer Conditions

10-Day Weather Forecast

×

Almanac

Astronomy

Jul. 30, 2015 Rise Set
Actual Time
Civil Twilight
Nautical Twilight
Astronomical Twilight
Moon
Length of Visible Light
Length of Day
Tomorrow will be .
, % of the Moon is Illuminated

Today's Extremes

State Highs State Lows

Community

WunderPhotos

Upload Photos

1,842,418 photos uploaded!

WunderBlogs® & News

Nearby

Air Quality

  Air Quality AQ Index Pollutant
Not available.

Snow Depth

Station Depth Elevation

Earthquake Activity

City Distance Mag. Time & Date
Minimum magnitude displayed is 2.5.

Coastal Water Temperatures

Place Temperature

Stations

Nearby Weather Stations

Station Location Temp. Windchill Dew Point Humidity Wind Precip. Elev Updated Type
                   
Flood Warning
Statement as of 8:39 AM CDT on July 30, 2015

The Flood Warning continues for
the Illinois River near Peoria.
* Until Friday evening.
* At 745 am Thursday the stage was 18.7 feet.
* Flood stage is 18.0 feet.
* Minor flooding is occurring and minor flooding is forecast.
* Forecast... the river will continue to fall to below flood stage by
tomorrow afternoon.
* Impact... at 18.0 feet... some flooding begins to bottomland not
protected by levees.



                  Fld observed forecast 6am
location stg stg day time Fri Sat sun

Illinois River
Peoria 18 18.7 Thu 8 am 18.1 17.7 17.3



Lat... Lon 4093 8952 4093 8941 4062 8957 4047 8980
      4053 8988 4068 8965